ESDF/RNB METAR and TAF weather

Enter ICAO airport designator
Station Type Date Time Source
ESDF METAR 2022/05/23 15:20 UTC NOAA

ESDF 231520Z 14009KT 120V190 9999 FEW020 14/10 Q1011


Station Type Date Time Source
ESDF Decoded METAR 2022/05/23 15:20 UTC NOAA

Ronneby, Sweden (ESDF) 56-16N 015-17E 74M
May 23, 2022 - 11:20 AM EDT / 2022.05.23 1520 UTC
Wind: from the SE (140 degrees) at 10 MPH (9 KT) (direction variable):0
Visibility: greater than 7 mile(s):0
Sky conditions: mostly clear
Temperature: 57 F (14 C)
Dew Point: 50 F (10 C)
Relative Humidity: 76%
Pressure (altimeter): 29.85 in. Hg (1011 hPa)
ob: ESDF 231520Z 14009KT 120V190 9999 FEW020 14/10 Q1011
cycle: 15

Station Type Date Time Source
ESDF TAF 2018/05/29 12:27 UTC NOAA

TAF TAF ESDF 291425Z 2912/2924 07008KT CAVOK
RMK MIL

Example: see airport list